createdAt,value
2017-07-09T00:30:31.261Z,99.90
2017-07-09T00:33:00.315Z,99.90
2017-07-09T00:35:29.310Z,99.90
2017-07-09T00:37:58.279Z,99.90
2017-07-09T00:40:27.262Z,99.90
2017-07-09T00:42:56.245Z,99.90
2017-07-09T00:45:25.213Z,99.90
2017-07-09T00:47:54.174Z,99.90
2017-07-09T00:50:23.154Z,99.90
2017-07-09T00:52:52.150Z,99.90
2017-07-09T00:55:21.149Z,99.90
2017-07-09T00:57:50.132Z,99.90
2017-07-09T01:00:19.085Z,99.90
2017-07-09T01:02:48.029Z,99.90
2017-07-09T01:05:17.031Z,99.90
2017-07-09T01:07:46.337Z,99.90
2017-07-09T01:10:15.289Z,99.90
2017-07-09T01:12:44.249Z,99.90
2017-07-09T01:15:13.608Z,99.90
2017-07-09T01:17:42.613Z,99.90
2017-07-09T01:20:11.601Z,99.90
2017-07-09T01:22:40.925Z,99.90
2017-07-09T01:25:09.897Z,99.90
2017-07-09T01:27:38.897Z,99.90
2017-07-09T01:30:07.889Z,99.90
2017-07-09T01:32:36.969Z,99.90
2017-07-09T01:35:05.958Z,99.90
2017-07-09T01:37:34.953Z,99.90
2017-07-09T01:40:03.973Z,99.90
2017-07-09T01:42:32.993Z,99.90
2017-07-09T01:45:01.985Z,99.90
2017-07-09T01:47:30.999Z,99.90
2017-07-09T01:49:59.980Z,99.90
2017-07-09T01:52:28.974Z,99.90
2017-07-09T01:54:58.090Z,99.90
2017-07-09T01:57:27.128Z,99.90
2017-07-09T01:59:56.230Z,99.90
2017-07-09T02:02:25.188Z,99.90
2017-07-09T02:04:54.138Z,99.90
2017-07-09T02:07:23.111Z,99.90
2017-07-09T02:09:52.097Z,99.90
2017-07-09T02:12:21.122Z,99.90
2017-07-09T02:14:50.074Z,99.90
2017-07-09T02:17:19.015Z,99.90
2017-07-09T02:19:47.983Z,99.90
2017-07-09T02:22:16.954Z,99.90
2017-07-09T02:24:45.925Z,99.90
2017-07-09T02:27:14.886Z,99.90
2017-07-09T02:29:44.487Z,99.90
2017-07-09T02:32:13.886Z,99.90
2017-07-09T02:34:42.847Z,99.90
2017-07-09T02:37:11.809Z,99.90
2017-07-09T02:39:40.806Z,99.90
2017-07-09T02:42:09.758Z,99.90
2017-07-09T02:44:38.745Z,99.90
2017-07-09T02:47:07.689Z,99.90
2017-07-09T02:49:36.753Z,99.90
2017-07-09T02:53:25.080Z,99.90
2017-07-09T02:55:54.050Z,99.90
2017-07-09T02:58:23.034Z,99.90
2017-07-09T03:00:52.048Z,99.90
2017-07-09T03:03:20.985Z,99.90
2017-07-09T03:05:49.946Z,99.90
2017-07-09T03:08:18.918Z,99.90
2017-07-09T03:10:47.865Z,99.90
2017-07-09T03:13:16.826Z,99.90
2017-07-09T03:15:45.774Z,99.90
2017-07-09T03:18:14.749Z,99.90
2017-07-09T03:20:43.738Z,99.90
2017-07-09T03:23:12.764Z,99.90
2017-07-09T03:25:41.707Z,99.90
2017-07-09T03:28:10.662Z,99.90
2017-07-09T03:30:39.610Z,99.90
2017-07-09T03:33:08.603Z,99.90
2017-07-09T03:35:37.534Z,99.90
2017-07-09T03:38:06.481Z,99.90
2017-07-09T03:40:35.868Z,99.90
2017-07-09T03:43:04.830Z,99.90
2017-07-09T03:45:34.009Z,99.90
2017-07-09T03:48:02.994Z,99.90
2017-07-09T03:50:32.029Z,99.90
2017-07-09T03:53:00.999Z,99.90
2017-07-09T03:55:29.950Z,99.90
2017-07-09T03:57:58.975Z,99.90
2017-07-09T04:00:27.954Z,99.90
2017-07-09T04:02:56.910Z,99.90
2017-07-09T04:05:25.874Z,99.90
2017-07-09T04:07:54.852Z,99.90
2017-07-09T04:10:23.871Z,99.90
2017-07-09T04:12:52.841Z,99.90
2017-07-09T04:15:21.843Z,99.90
2017-07-09T04:17:50.810Z,99.90
2017-07-09T04:20:19.773Z,99.90
2017-07-09T04:23:19.057Z,99.90
2017-07-09T04:25:48.045Z,99.90
2017-07-09T04:28:17.007Z,99.90
2017-07-09T04:30:45.925Z,99.90
2017-07-09T04:33:14.915Z,99.90
2017-07-09T04:35:44.243Z,99.90
2017-07-09T04:38:13.221Z,99.90
2017-07-09T04:40:42.210Z,99.90
2017-07-09T04:43:11.229Z,99.90
2017-07-09T04:45:40.681Z,99.90
2017-07-09T04:48:09.661Z,99.90
2017-07-09T04:50:38.601Z,99.90
2017-07-09T04:53:07.567Z,99.90
2017-07-09T04:55:36.549Z,99.90
2017-07-09T04:58:05.487Z,99.90
2017-07-09T05:00:34.447Z,99.90
2017-07-09T05:03:03.401Z,99.90
2017-07-09T05:05:32.373Z,99.90
2017-07-09T05:08:01.370Z,99.90
2017-07-09T05:10:30.303Z,99.90
2017-07-09T05:12:59.238Z,99.90
2017-07-09T05:15:28.245Z,99.90
2017-07-09T05:17:57.190Z,99.90
2017-07-09T05:20:26.122Z,99.90
2017-07-09T05:22:55.112Z,99.90
2017-07-09T05:38:45.697Z,99.90
2017-07-09T05:41:14.736Z,99.90
2017-07-09T05:43:43.691Z,99.90
2017-07-09T05:46:12.714Z,99.90
2017-07-09T05:48:41.678Z,99.90
2017-07-09T05:51:10.661Z,99.90
2017-07-09T05:53:39.607Z,99.90
2017-07-09T05:56:08.562Z,99.90
2017-07-09T05:58:37.542Z,99.90
2017-07-09T06:01:06.510Z,99.90
2017-07-09T06:03:35.505Z,99.90
2017-07-09T06:06:04.458Z,99.90
2017-07-09T06:08:33.414Z,99.90
2017-07-09T06:11:02.452Z,99.90
2017-07-09T06:13:31.486Z,99.90
2017-07-09T06:16:00.507Z,99.90
2017-07-09T06:18:29.478Z,99.90
2017-07-09T06:20:58.454Z,99.90
2017-07-09T06:23:27.420Z,99.90
2017-07-09T06:25:56.365Z,99.90
2017-07-09T06:28:25.305Z,99.90
2017-07-09T06:30:54.261Z,99.90
2017-07-09T06:33:23.230Z,99.90
2017-07-09T06:35:52.175Z,99.90
2017-07-09T06:38:21.170Z,99.90
2017-07-09T06:40:50.493Z,99.90
2017-07-09T06:43:19.454Z,99.90
2017-07-09T06:45:48.430Z,99.90
2017-07-09T06:48:17.406Z,99.90
2017-07-09T06:50:46.397Z,99.90
2017-07-09T06:53:15.368Z,99.90
2017-07-09T06:55:44.633Z,99.90
2017-07-09T06:58:13.633Z,99.90
2017-07-09T07:00:42.638Z,99.90
2017-07-09T07:03:11.657Z,99.90
2017-07-09T07:05:40.663Z,99.90
2017-07-09T07:08:09.663Z,99.90
2017-07-09T07:10:38.663Z,99.90
2017-07-09T07:13:07.634Z,99.90
2017-07-09T07:15:36.589Z,99.90
2017-07-09T07:18:05.547Z,99.90
2017-07-09T07:20:34.608Z,99.90
2017-07-09T07:23:03.689Z,99.90
2017-07-09T07:25:32.726Z,99.90
2017-07-09T07:28:01.736Z,99.90
2017-07-09T07:30:30.734Z,99.90
2017-07-09T07:32:59.973Z,99.90
2017-07-09T07:35:28.941Z,99.90
2017-07-09T07:37:57.922Z,99.90
2017-07-09T07:40:26.892Z,99.90
2017-07-09T07:43:58.256Z,98.80
2017-07-09T07:46:27.236Z,97.50
2017-07-09T07:48:56.201Z,96.70
2017-07-09T07:51:25.234Z,97.10
2017-07-09T07:53:54.254Z,94.50
2017-07-09T07:56:24.497Z,94.60
2017-07-09T07:58:53.480Z,95.10
2017-07-09T08:01:22.986Z,95.50
2017-07-09T08:03:52.001Z,97.00
2017-07-09T08:06:21.807Z,97.20
2017-07-09T08:08:50.858Z,97.80
2017-07-09T08:11:20.279Z,96.30
2017-07-09T08:13:49.281Z,96.10
2017-07-09T08:16:18.251Z,96.90
2017-07-09T08:18:47.182Z,96.90
2017-07-09T08:21:16.183Z,96.20
2017-07-09T08:23:45.123Z,96.10
2017-07-09T08:26:14.486Z,95.20
2017-07-09T08:28:43.554Z,94.70
2017-07-09T08:31:12.513Z,94.90
2017-07-09T08:33:41.534Z,96.30
2017-07-09T08:36:10.560Z,98.00
2017-07-09T08:38:39.557Z,99.10
2017-07-09T08:42:12.039Z,99.50
2017-07-09T08:44:41.066Z,99.60
2017-07-09T08:47:10.066Z,99.70
2017-07-09T08:49:39.091Z,98.70
2017-07-09T08:52:08.115Z,98.70
2017-07-09T08:54:37.106Z,98.70
2017-07-09T08:57:06.119Z,98.50
2017-07-09T09:03:07.457Z,96.10
2017-07-09T09:05:36.441Z,93.90
2017-07-09T09:08:05.521Z,94.80
2017-07-09T09:10:34.560Z,96.00
2017-07-09T09:13:03.617Z,97.30
2017-07-09T09:15:32.570Z,99.20
2017-07-09T09:18:01.613Z,99.10
2017-07-09T09:20:30.617Z,99.20
2017-07-09T09:22:59.621Z,98.20
2017-07-09T09:25:28.606Z,97.20
2017-07-09T09:27:57.590Z,95.10
2017-07-09T09:30:26.578Z,93.80
2017-07-09T09:35:54.722Z,95.60
2017-07-09T09:38:23.809Z,97.00
2017-07-09T09:40:52.781Z,96.40
2017-07-09T09:43:21.747Z,94.30
2017-07-09T09:45:50.842Z,93.60
2017-07-09T09:48:19.819Z,93.50
2017-07-09T09:50:48.815Z,92.70
2017-07-09T09:53:18.113Z,92.70
2017-07-09T09:55:47.091Z,93.70
2017-07-09T09:58:16.066Z,92.10
